This is the latest recevied weather packets stored in our database for station/object TONGUE. If no packets are shown the sender has not sent any weather packets the latest 10 day(s).
| Time | Temp. | Humidity | Pressure | Rain* | Wind** | Luminosity | Snow |
|---|---|---|---|---|---|---|---|
| 1788045002 | 18.89° C | 70% | 0 hPa | - | - | - | - |
| 1788044403 | 18.89° C | 67% | 0 hPa | - | - | - | - |
| 1788043803 | 18.89° C | 67% | 0 hPa | - | - | - | - |
| 1788043203 | 18.33° C | 70% | 0 hPa | - | - | - | - |
| 1788042603 | 18.89° C | 68% | 0 hPa | - | - | - | - |
| 1788042005 | 18.89° C | 68% | 0 hPa | - | - | - | - |
| 1788041403 | 18.33° C | 68% | 0 hPa | - | - | - | - |
| 1788040804 | 18.33° C | 69% | 0 hPa | - | - | - | - |
| 1788040203 | 18.33° C | 70% | 0 hPa | - | - | - | - |
| 1788039603 | 18.89° C | 66% | 0 hPa | - | - | - | - |
| 1788039003 | 18.33° C | 69% | 0 hPa | - | - | - | - |
| 1788038403 | 17.78° C | 73% | 0 hPa | - | - | - | - |
| 1788037803 | 17.78° C | 74% | 0 hPa | - | - | - | - |
| 1788037203 | 17.78° C | 74% | 0 hPa | - | - | - | - |
| 1788036603 | 17.78° C | 73% | 0 hPa | - | - | - | - |
| 1788036003 | 18.33° C | 69% | 0 hPa | - | - | - | - |
| 1788035404 | 18.33° C | 72% | 0 hPa | - | - | - | - |
| 1788034803 | 18.33° C | 71% | 0 hPa | - | - | - | - |
| 1788034203 | 18.33° C | 71% | 0 hPa | - | - | - | - |
| 1788033603 | 17.22° C | 75% | 0 hPa | - | - | - | - |
| 1788033003 | 18.89° C | 67% | 0 hPa | - | - | - | - |
| 1788032403 | 18.89° C | 68% | 0 hPa | - | - | - | - |
| 1788031803 | 18.89° C | 67% | 0 hPa | - | - | - | - |
| 1788031204 | 17.78° C | 70% | 0 hPa | - | - | - | - |
| 1788030603 | 17.78° C | 69% | 0 hPa | - | - | - | - |
* Rain since midnight (hover to see other rain measurements)
** Current wind speed in m/s (hover to see current wind gust speed)